sensor_id;sensor_type;location;lat;lon;timestamp;pressure;altitude;pressure_sealevel;temperature;humidity
17505;BME280;8870;50.950;11.762;2023-11-19T00:02:22;98294.00;;;4.81;100.00
17505;BME280;8870;50.950;11.762;2023-11-19T00:07:53;98296.75;;;4.79;100.00
17505;BME280;8870;50.950;11.762;2023-11-19T00:13:12;98294.97;;;4.80;100.00
17505;BME280;8870;50.950;11.762;2023-11-19T00:18:46;98288.25;;;4.85;100.00
17505;BME280;8870;50.950;11.762;2023-11-19T00:24:06;98295.50;;;4.94;100.00
17505;BME280;8870;50.950;11.762;2023-11-19T00:29:38;98276.94;;;4.93;100.00
17505;BME280;8870;50.950;11.762;2023-11-19T00:35:00;98277.97;;;5.02;100.00
17505;BME280;8870;50.950;11.762;2023-11-19T00:40:31;98253.84;;;5.03;100.00
17505;BME280;8870;50.950;11.762;2023-11-19T00:45:50;98247.84;;;5.11;100.00
17505;BME280;8870;50.950;11.762;2023-11-19T00:51:23;98239.75;;;5.22;100.00
17505;BME280;8870;50.950;11.762;2023-11-19T00:56:43;98225.41;;;5.23;100.00
17505;BME280;8870;50.950;11.762;2023-11-19T01:02:15;98213.38;;;5.39;100.00
17505;BME280;8870;50.950;11.762;2023-11-19T01:07:36;98192.75;;;5.41;100.00
17505;BME280;8870;50.950;11.762;2023-11-19T01:13:10;98166.16;;;5.39;100.00
17505;BME280;8870;50.950;11.762;2023-11-19T01:18:29;98165.19;;;5.40;100.00
17505;BME280;8870;50.950;11.762;2023-11-19T01:24:02;98185.28;;;5.45;100.00
17505;BME280;8870;50.950;11.762;2023-11-19T01:29:25;98165.19;;;5.50;100.00
17505;BME280;8870;50.950;11.762;2023-11-19T01:34:56;98145.66;;;5.50;100.00
17505;BME280;8870;50.950;11.762;2023-11-19T01:40:20;98154.09;;;5.55;100.00
17505;BME280;8870;50.950;11.762;2023-11-19T01:45:51;98151.75;;;5.62;100.00
17505;BME280;8870;50.950;11.762;2023-11-19T01:51:10;98152.75;;;5.70;100.00
17505;BME280;8870;50.950;11.762;2023-11-19T01:56:44;98145.19;;;5.76;100.00
17505;BME280;8870;50.950;11.762;2023-11-19T02:02:03;98129.28;;;5.84;100.00
17505;BME280;8870;50.950;11.762;2023-11-19T02:07:35;98090.16;;;5.83;100.00
17505;BME280;8870;50.950;11.762;2023-11-19T02:13:10;98104.38;;;5.93;100.00
17505;BME280;8870;50.950;11.762;2023-11-19T02:18:29;98085.25;;;5.98;100.00
17505;BME280;8870;50.950;11.762;2023-11-19T02:24:02;98063.16;;;5.76;100.00
17505;BME280;8870;50.950;11.762;2023-11-19T02:29:33;98052.16;;;5.69;100.00
17505;BME280;8870;50.950;11.762;2023-11-19T02:35:06;98035.84;;;5.63;100.00
17505;BME280;8870;50.950;11.762;2023-11-19T02:40:25;98035.13;;;5.61;100.00
17505;BME280;8870;50.950;11.762;2023-11-19T02:46:00;98023.06;;;5.57;100.00
17505;BME280;8870;50.950;11.762;2023-11-19T02:51:23;98026.16;;;5.52;100.00
17505;BME280;8870;50.950;11.762;2023-11-19T02:56:55;98021.06;;;5.49;100.00
17505;BME280;8870;50.950;11.762;2023-11-19T03:02:19;98010.38;;;5.49;100.00
17505;BME280;8870;50.950;11.762;2023-11-19T03:07:55;98013.78;;;5.51;100.00
17505;BME280;8870;50.950;11.762;2023-11-19T03:13:15;98006.72;;;5.50;100.00
17505;BME280;8870;50.950;11.762;2023-11-19T03:18:49;98001.09;;;5.53;100.00
17505;BME280;8870;50.950;11.762;2023-11-19T03:24:08;98007.84;;;5.57;100.00
17505;BME280;8870;50.950;11.762;2023-11-19T03:29:39;98010.38;;;5.59;100.00
17505;BME280;8870;50.950;11.762;2023-11-19T03:35:00;98006.72;;;5.60;100.00
17505;BME280;8870;50.950;11.762;2023-11-19T03:40:34;98001.09;;;5.63;100.00
17505;BME280;8870;50.950;11.762;2023-11-19T03:46:04;97990.13;;;5.66;100.00
17505;BME280;8870;50.950;11.762;2023-11-19T03:51:39;97994.06;;;5.71;100.00
17505;BME280;8870;50.950;11.762;2023-11-19T03:57:10;98000.97;;;5.74;100.00
17505;BME280;8870;50.950;11.762;2023-11-19T04:02:42;97988.47;;;5.75;100.00
17505;BME280;8870;50.950;11.762;2023-11-19T04:08:04;98001.50;;;5.78;100.00
17505;BME280;8870;50.950;11.762;2023-11-19T04:13:35;97987.03;;;5.80;100.00
17505;BME280;8870;50.950;11.762;2023-11-19T04:18:54;97978.88;;;5.82;100.00
17505;BME280;8870;50.950;11.762;2023-11-19T04:24:27;97976.03;;;5.83;100.00
17505;BME280;8870;50.950;11.762;2023-11-19T04:29:46;97972.25;;;5.86;100.00
17505;BME280;8870;50.950;11.762;2023-11-19T04:35:17;97979.16;;;5.89;100.00
17505;BME280;8870;50.950;11.762;2023-11-19T04:40:39;97967.47;;;5.90;100.00
17505;BME280;8870;50.950;11.762;2023-11-19T04:46:10;97950.16;;;5.94;100.00
17505;BME280;8870;50.950;11.762;2023-11-19T04:51:28;97949.16;;;5.95;100.00
17505;BME280;8870;50.950;11.762;2023-11-19T04:57:03;97948.88;;;5.98;100.00
17505;BME280;8870;50.950;11.762;2023-11-19T05:02:22;97939.75;;;6.00;100.00
17505;BME280;8870;50.950;11.762;2023-11-19T05:07:52;97939.63;;;6.02;100.00
17505;BME280;8870;50.950;11.762;2023-11-19T05:13:13;97949.19;;;6.05;100.00
17505;BME280;8870;50.950;11.762;2023-11-19T05:18:44;97936.50;;;6.07;100.00
17505;BME280;8870;50.950;11.762;2023-11-19T05:24:03;97947.91;;;6.09;100.00
17505;BME280;8870;50.950;11.762;2023-11-19T05:29:39;97937.75;;;6.12;100.00
17505;BME280;8870;50.950;11.762;2023-11-19T05:34:59;97931.44;;;6.13;100.00
17505;BME280;8870;50.950;11.762;2023-11-19T05:40:30;97921.00;;;6.20;100.00
17505;BME280;8870;50.950;11.762;2023-11-19T05:45:50;97908.16;;;6.24;100.00
17505;BME280;8870;50.950;11.762;2023-11-19T05:51:30;97912.91;;;6.30;100.00
17505;BME280;8870;50.950;11.762;2023-11-19T05:56:49;97928.69;;;6.33;100.00
17505;BME280;8870;50.950;11.762;2023-11-19T06:02:23;97941.03;;;6.44;100.00
17505;BME280;8870;50.950;11.762;2023-11-19T06:07:42;97959.16;;;6.50;100.00
17505;BME280;8870;50.950;11.762;2023-11-19T06:13:14;97960.13;;;6.59;100.00
17505;BME280;8870;50.950;11.762;2023-11-19T06:18:36;97957.72;;;6.66;100.00
17505;BME280;8870;50.950;11.762;2023-11-19T06:24:07;97946.28;;;6.73;100.00
17505;BME280;8870;50.950;11.762;2023-11-19T06:29:32;97947.34;;;6.81;100.00
17505;BME280;8870;50.950;11.762;2023-11-19T06:35:08;97950.72;;;6.83;100.00
17505;BME280;8870;50.950;11.762;2023-11-19T06:40:26;97928.75;;;6.79;100.00
17505;BME280;8870;50.950;11.762;2023-11-19T06:45:57;97936.94;;;6.77;100.00
17505;BME280;8870;50.950;11.762;2023-11-19T06:51:17;97933.97;;;6.81;100.00
17505;BME280;8870;50.950;11.762;2023-11-19T06:56:49;97928.31;;;6.84;100.00
17505;BME280;8870;50.950;11.762;2023-11-19T07:02:07;97940.78;;;6.93;100.00
17505;BME280;8870;50.950;11.762;2023-11-19T07:07:44;97938.75;;;7.05;100.00
17505;BME280;8870;50.950;11.762;2023-11-19T07:13:03;97944.91;;;7.15;100.00
17505;BME280;8870;50.950;11.762;2023-11-19T07:18:35;97949.41;;;7.15;100.00
17505;BME280;8870;50.950;11.762;2023-11-19T07:23:55;97948.94;;;7.19;100.00
17505;BME280;8870;50.950;11.762;2023-11-19T07:29:27;97945.38;;;7.29;100.00
17505;BME280;8870;50.950;11.762;2023-11-19T07:34:47;97980.81;;;7.40;100.00
17505;BME280;8870;50.950;11.762;2023-11-19T07:40:21;97973.19;;;7.46;100.00
17505;BME280;8870;50.950;11.762;2023-11-19T07:45:40;97966.91;;;7.55;100.00
17505;BME280;8870;50.950;11.762;2023-11-19T07:51:12;97972.03;;;7.66;100.00
17505;BME280;8870;50.950;11.762;2023-11-19T07:56:33;97954.84;;;7.77;100.00
17505;BME280;8870;50.950;11.762;2023-11-19T08:02:05;97963.50;;;7.89;100.00
17505;BME280;8870;50.950;11.762;2023-11-19T08:07:24;97996.13;;;8.02;100.00
17505;BME280;8870;50.950;11.762;2023-11-19T08:12:57;97980.78;;;8.13;100.00
17505;BME280;8870;50.950;11.762;2023-11-19T08:18:16;97973.94;;;8.18;100.00
17505;BME280;8870;50.950;11.762;2023-11-19T08:23:47;97970.59;;;8.25;100.00
17505;BME280;8870;50.950;11.762;2023-11-19T08:29:07;97956.88;;;8.28;100.00
17505;BME280;8870;50.950;11.762;2023-11-19T08:34:39;97959.41;;;8.29;100.00
17505;BME280;8870;50.950;11.762;2023-11-19T08:39:57;97954.78;;;8.40;100.00
17505;BME280;8870;50.950;11.762;2023-11-19T08:45:31;97940.78;;;8.54;100.00
17505;BME280;8870;50.950;11.762;2023-11-19T08:50:50;97945.25;;;8.72;100.00
17505;BME280;8870;50.950;11.762;2023-11-19T08:56:21;97947.97;;;8.88;100.00
17505;BME280;8870;50.950;11.762;2023-11-19T09:01:41;97955.72;;;9.00;100.00
17505;BME280;8870;50.950;11.762;2023-11-19T09:07:13;97970.56;;;9.12;100.00
17505;BME280;8870;50.950;11.762;2023-11-19T09:12:31;97962.19;;;9.23;100.00
17505;BME280;8870;50.950;11.762;2023-11-19T09:18:05;97958.53;;;9.41;100.00
17505;BME280;8870;50.950;11.762;2023-11-19T09:23:23;97946.97;;;9.57;100.00
17505;BME280;8870;50.950;11.762;2023-11-19T09:28:58;97946.31;;;9.71;100.00
17505;BME280;8870;50.950;11.762;2023-11-19T09:34:25;97950.34;;;9.84;100.00
17505;BME280;8870;50.950;11.762;2023-11-19T09:39:58;97946.13;;;9.98;100.00
17505;BME280;8870;50.950;11.762;2023-11-19T09:45:17;97940.06;;;10.12;100.00
17505;BME280;8870;50.950;11.762;2023-11-19T09:50:51;97916.97;;;10.26;100.00
17505;BME280;8870;50.950;11.762;2023-11-19T09:56:12;97916.66;;;10.38;100.00
17505;BME280;8870;50.950;11.762;2023-11-19T10:01:45;97895.22;;;10.53;100.00
17505;BME280;8870;50.950;11.762;2023-11-19T10:07:07;97885.34;;;10.76;100.00
17505;BME280;8870;50.950;11.762;2023-11-19T10:12:42;97850.03;;;11.03;100.00
17505;BME280;8870;50.950;11.762;2023-11-19T10:18:05;97814.72;;;11.13;100.00
17505;BME280;8870;50.950;11.762;2023-11-19T10:23:51;97729.47;;;11.12;100.00
17505;BME280;8870;50.950;11.762;2023-11-19T10:29:12;97732.84;;;11.14;100.00
17505;BME280;8870;50.950;11.762;2023-11-19T10:34:44;97715.94;;;11.20;100.00
17505;BME280;8870;50.950;11.762;2023-11-19T10:40:18;97692.88;;;11.17;100.00
17505;BME280;8870;50.950;11.762;2023-11-19T10:45:36;97689.00;;;11.20;100.00
17505;BME280;8870;50.950;11.762;2023-11-19T10:51:08;97728.13;;;11.31;100.00
17505;BME280;8870;50.950;11.762;2023-11-19T10:56:31;97734.84;;;11.35;100.00
17505;BME280;8870;50.950;11.762;2023-11-19T11:02:04;97732.59;;;11.23;100.00
17505;BME280;8870;50.950;11.762;2023-11-19T11:07:25;97713.91;;;11.22;100.00
17505;BME280;8870;50.950;11.762;2023-11-19T11:13:03;97703.13;;;11.22;100.00
17505;BME280;8870;50.950;11.762;2023-11-19T11:18:21;97728.03;;;11.24;100.00
17505;BME280;8870;50.950;11.762;2023-11-19T11:24:05;97753.38;;;11.38;100.00
17505;BME280;8870;50.950;11.762;2023-11-19T11:29:37;97734.81;;;11.58;100.00
17505;BME280;8870;50.950;11.762;2023-11-19T11:35:19;97732.19;;;11.80;100.00
17505;BME280;8870;50.950;11.762;2023-11-19T11:40:42;97738.16;;;11.90;100.00
17505;BME280;8870;50.950;11.762;2023-11-19T11:52:05;97698.88;;;11.72;100.00
17505;BME280;8870;50.950;11.762;2023-11-19T11:57:38;97700.28;;;11.68;100.00
17505;BME280;8870;50.950;11.762;2023-11-19T12:02:56;97721.69;;;11.70;100.00
17505;BME280;8870;50.950;11.762;2023-11-19T12:08:34;97719.06;;;11.77;100.00
17505;BME280;8870;50.950;11.762;2023-11-19T12:13:56;97723.09;;;11.81;100.00
17505;BME280;8870;50.950;11.762;2023-11-19T12:19:29;97724.72;;;11.82;100.00
17505;BME280;8870;50.950;11.762;2023-11-19T12:24:50;97716.84;;;11.80;100.00
17505;BME280;8870;50.950;11.762;2023-11-19T12:30:22;97713.88;;;11.75;100.00
17505;BME280;8870;50.950;11.762;2023-11-19T12:35:41;97714.41;;;11.70;100.00
17505;BME280;8870;50.950;11.762;2023-11-19T12:41:16;97717.69;;;11.81;100.00
17505;BME280;8870;50.950;11.762;2023-11-19T12:46:40;97701.94;;;11.84;100.00
17505;BME280;8870;50.950;11.762;2023-11-19T12:52:14;97701.63;;;11.94;100.00
17505;BME280;8870;50.950;11.762;2023-11-19T12:57:42;97695.78;;;12.06;100.00
17505;BME280;8870;50.950;11.762;2023-11-19T13:03:31;97694.69;;;12.15;100.00
17505;BME280;8870;50.950;11.762;2023-11-19T13:08:50;97715.16;;;12.24;100.00
17505;BME280;8870;50.950;11.762;2023-11-19T13:14:36;97703.31;;;12.25;100.00
17505;BME280;8870;50.950;11.762;2023-11-19T13:19:57;97690.22;;;12.07;100.00
17505;BME280;8870;50.950;11.762;2023-11-19T13:25:30;97681.09;;;11.93;100.00
17505;BME280;8870;50.950;11.762;2023-11-19T13:30:51;97678.78;;;11.90;100.00
17505;BME280;8870;50.950;11.762;2023-11-19T13:36:23;97673.16;;;12.07;100.00
17505;BME280;8870;50.950;11.762;2023-11-19T13:41:41;97680.38;;;11.99;100.00
17505;BME280;8870;50.950;11.762;2023-11-19T13:47:30;97667.44;;;11.80;100.00
17505;BME280;8870;50.950;11.762;2023-11-19T13:52:49;97675.25;;;11.75;100.00
17505;BME280;8870;50.950;11.762;2023-11-19T13:58:21;97673.47;;;11.67;100.00
17505;BME280;8870;50.950;11.762;2023-11-19T14:03:41;97661.09;;;11.72;100.00
17505;BME280;8870;50.950;11.762;2023-11-19T14:09:13;97657.94;;;11.69;100.00
17505;BME280;8870;50.950;11.762;2023-11-19T14:14:31;97649.38;;;11.65;100.00
17505;BME280;8870;50.950;11.762;2023-11-19T14:20:07;97641.47;;;11.49;100.00
17505;BME280;8870;50.950;11.762;2023-11-19T14:25:28;97643.91;;;11.44;100.00
17505;BME280;8870;50.950;11.762;2023-11-19T14:30:59;97655.72;;;11.28;100.00
17505;BME280;8870;50.950;11.762;2023-11-19T14:36:26;97648.00;;;11.24;100.00
17505;BME280;8870;50.950;11.762;2023-11-19T14:41:58;97638.13;;;11.17;100.00
17505;BME280;8870;50.950;11.762;2023-11-19T14:47:19;97631.41;;;11.13;100.00
17505;BME280;8870;50.950;11.762;2023-11-19T14:52:53;97632.84;;;11.08;100.00
17505;BME280;8870;50.950;11.762;2023-11-19T14:58:12;97648.91;;;11.02;100.00
17505;BME280;8870;50.950;11.762;2023-11-19T15:03:44;97642.38;;;10.96;100.00
17505;BME280;8870;50.950;11.762;2023-11-19T15:09:08;97645.75;;;10.75;100.00
17505;BME280;8870;50.950;11.762;2023-11-19T15:14:40;97661.22;;;10.58;100.00
17505;BME280;8870;50.950;11.762;2023-11-19T15:19:58;97663.59;;;10.53;100.00
17505;BME280;8870;50.950;11.762;2023-11-19T15:25:32;97658.22;;;10.53;100.00
17505;BME280;8870;50.950;11.762;2023-11-19T15:30:51;97679.13;;;10.51;100.00
17505;BME280;8870;50.950;11.762;2023-11-19T15:36:22;97682.47;;;10.53;100.00
17505;BME280;8870;50.950;11.762;2023-11-19T15:41:43;97684.31;;;10.52;100.00
17505;BME280;8870;50.950;11.762;2023-11-19T15:47:14;97668.47;;;10.57;100.00
17505;BME280;8870;50.950;11.762;2023-11-19T15:52:32;97678.16;;;10.67;100.00
17505;BME280;8870;50.950;11.762;2023-11-19T15:58:08;97674.25;;;10.69;100.00
17505;BME280;8870;50.950;11.762;2023-11-19T16:03:27;97689.41;;;10.70;100.00
17505;BME280;8870;50.950;11.762;2023-11-19T16:09:02;97691.91;;;10.72;100.00
17505;BME280;8870;50.950;11.762;2023-11-19T16:14:23;97700.53;;;10.67;100.00
17505;BME280;8870;50.950;11.762;2023-11-19T16:19:54;97703.97;;;10.61;100.00
17505;BME280;8870;50.950;11.762;2023-11-19T16:25:12;97704.50;;;10.56;100.00
17505;BME280;8870;50.950;11.762;2023-11-19T16:30:45;97701.50;;;10.51;100.00
17505;BME280;8870;50.950;11.762;2023-11-19T16:36:05;97687.56;;;10.47;100.00
17505;BME280;8870;50.950;11.762;2023-11-19T16:41:37;97703.91;;;10.46;100.00
17505;BME280;8870;50.950;11.762;2023-11-19T16:46:58;97699.34;;;10.46;100.00
17505;BME280;8870;50.950;11.762;2023-11-19T16:52:30;97693.47;;;10.43;100.00
17505;BME280;8870;50.950;11.762;2023-11-19T16:57:50;97712.50;;;10.41;100.00
17505;BME280;8870;50.950;11.762;2023-11-19T17:03:24;97706.97;;;10.35;100.00
17505;BME280;8870;50.950;11.762;2023-11-19T17:08:42;97709.88;;;10.25;100.00
17505;BME280;8870;50.950;11.762;2023-11-19T17:14:14;97721.19;;;10.20;100.00
17505;BME280;8870;50.950;11.762;2023-11-19T17:19:38;97724.41;;;10.15;100.00
17505;BME280;8870;50.950;11.762;2023-11-19T17:25:09;97723.53;;;10.15;100.00
17505;BME280;8870;50.950;11.762;2023-11-19T17:30:29;97725.56;;;10.13;100.00
17505;BME280;8870;50.950;11.762;2023-11-19T17:36:05;97711.97;;;10.14;100.00
17505;BME280;8870;50.950;11.762;2023-11-19T17:41:36;97715.31;;;10.16;100.00
17505;BME280;8870;50.950;11.762;2023-11-19T17:47:07;97715.66;;;10.13;100.00
17505;BME280;8870;50.950;11.762;2023-11-19T17:52:28;97729.47;;;10.10;100.00
17505;BME280;8870;50.950;11.762;2023-11-19T17:57:59;97730.47;;;10.09;100.00
17505;BME280;8870;50.950;11.762;2023-11-19T18:03:17;97728.78;;;10.08;100.00
17505;BME280;8870;50.950;11.762;2023-11-19T18:08:51;97738.72;;;10.08;100.00
17505;BME280;8870;50.950;11.762;2023-11-19T18:14:10;97741.75;;;10.05;100.00
17505;BME280;8870;50.950;11.762;2023-11-19T18:19:41;97749.66;;;10.06;100.00
17505;BME280;8870;50.950;11.762;2023-11-19T18:25:02;97748.31;;;10.10;100.00
17505;BME280;8870;50.950;11.762;2023-11-19T18:30:35;97741.41;;;10.08;100.00
17505;BME280;8870;50.950;11.762;2023-11-19T18:35:53;97734.16;;;10.08;100.00
17505;BME280;8870;50.950;11.762;2023-11-19T18:41:26;97737.53;;;10.10;100.00
17505;BME280;8870;50.950;11.762;2023-11-19T18:46:45;97741.91;;;10.11;100.00
17505;BME280;8870;50.950;11.762;2023-11-19T18:52:18;97743.59;;;10.12;100.00
17505;BME280;8870;50.950;11.762;2023-11-19T18:57:39;97743.09;;;10.09;100.00
17505;BME280;8870;50.950;11.762;2023-11-19T19:03:10;97746.63;;;10.09;100.00
17505;BME280;8870;50.950;11.762;2023-11-19T19:08:31;97741.56;;;10.06;100.00
17505;BME280;8870;50.950;11.762;2023-11-19T19:14:08;97740.28;;;10.02;100.00
17505;BME280;8870;50.950;11.762;2023-11-19T19:19:26;97727.50;;;9.96;100.00
17505;BME280;8870;50.950;11.762;2023-11-19T19:24:57;97735.94;;;9.93;100.00
17505;BME280;8870;50.950;11.762;2023-11-19T19:30:18;97736.63;;;9.86;100.00
17505;BME280;8870;50.950;11.762;2023-11-19T19:35:49;97734.59;;;9.89;100.00
17505;BME280;8870;50.950;11.762;2023-11-19T19:41:07;97734.13;;;9.85;100.00
17505;BME280;8870;50.950;11.762;2023-11-19T19:46:41;97725.03;;;9.86;100.00
17505;BME280;8870;50.950;11.762;2023-11-19T19:51:59;97732.25;;;9.85;100.00
17505;BME280;8870;50.950;11.762;2023-11-19T19:57:32;97738.31;;;9.87;100.00
17505;BME280;8870;50.950;11.762;2023-11-19T20:02:54;97741.66;;;9.90;100.00
17505;BME280;8870;50.950;11.762;2023-11-19T20:08:26;97744.84;;;9.93;100.00
17505;BME280;8870;50.950;11.762;2023-11-19T20:13:44;97739.28;;;9.95;100.00
17505;BME280;8870;50.950;11.762;2023-11-19T20:19:20;97743.31;;;9.99;100.00
17505;BME280;8870;50.950;11.762;2023-11-19T20:24:38;97746.84;;;9.99;100.00
17505;BME280;8870;50.950;11.762;2023-11-19T20:30:10;97740.78;;;9.97;100.00
17505;BME280;8870;50.950;11.762;2023-11-19T20:35:31;97741.47;;;9.99;100.00
17505;BME280;8870;50.950;11.762;2023-11-19T20:41:02;97738.59;;;10.01;100.00
17505;BME280;8870;50.950;11.762;2023-11-19T20:46:21;97732.72;;;9.97;100.00
17505;BME280;8870;50.950;11.762;2023-11-19T20:51:57;97737.59;;;9.94;100.00
17505;BME280;8870;50.950;11.762;2023-11-19T20:57:15;97747.00;;;9.98;100.00
17505;BME280;8870;50.950;11.762;2023-11-19T21:02:46;97728.84;;;10.00;100.00
17505;BME280;8870;50.950;11.762;2023-11-19T21:08:07;97717.88;;;10.01;100.00
17505;BME280;8870;50.950;11.762;2023-11-19T21:13:38;97716.72;;;10.04;100.00
17505;BME280;8870;50.950;11.762;2023-11-19T21:18:56;97718.41;;;10.05;100.00
17505;BME280;8870;50.950;11.762;2023-11-19T21:24:30;97725.44;;;10.06;100.00
17505;BME280;8870;50.950;11.762;2023-11-19T21:29:48;97733.22;;;10.01;100.00
17505;BME280;8870;50.950;11.762;2023-11-19T21:35:20;97730.19;;;9.96;100.00
17505;BME280;8870;50.950;11.762;2023-11-19T21:40:41;97734.94;;;9.85;100.00
17505;BME280;8870;50.950;11.762;2023-11-19T21:46:13;97748.13;;;9.64;100.00
17505;BME280;8870;50.950;11.762;2023-11-19T21:51:32;97752.22;;;9.43;100.00
17505;BME280;8870;50.950;11.762;2023-11-19T21:57:12;97770.34;;;9.24;100.00
17505;BME280;8870;50.950;11.762;2023-11-19T22:02:30;97773.88;;;9.08;100.00
17505;BME280;8870;50.950;11.762;2023-11-19T22:08:02;97784.16;;;8.97;100.00
17505;BME280;8870;50.950;11.762;2023-11-19T22:13:26;97795.03;;;8.87;100.00
17505;BME280;8870;50.950;11.762;2023-11-19T22:18:59;97793.16;;;8.79;100.00
17505;BME280;8870;50.950;11.762;2023-11-19T22:24:17;97811.28;;;8.77;100.00
17505;BME280;8870;50.950;11.762;2023-11-19T22:29:51;97818.16;;;8.71;100.00
17505;BME280;8870;50.950;11.762;2023-11-19T22:35:09;97824.03;;;8.67;100.00
17505;BME280;8870;50.950;11.762;2023-11-19T22:40:41;97825.38;;;8.62;100.00
17505;BME280;8870;50.950;11.762;2023-11-19T22:46:02;97832.91;;;8.59;100.00
17505;BME280;8870;50.950;11.762;2023-11-19T22:51:35;97839.44;;;8.56;100.00
17505;BME280;8870;50.950;11.762;2023-11-19T22:56:53;97832.38;;;8.55;100.00
17505;BME280;8870;50.950;11.762;2023-11-19T23:02:28;97824.81;;;8.51;100.00
17505;BME280;8870;50.950;11.762;2023-11-19T23:07:46;97835.75;;;8.49;100.00
17505;BME280;8870;50.950;11.762;2023-11-19T23:13:21;97829.81;;;8.45;100.00
17505;BME280;8870;50.950;11.762;2023-11-19T23:18:42;97839.44;;;8.48;100.00
17505;BME280;8870;50.950;11.762;2023-11-19T23:24:13;97844.06;;;8.46;100.00
17505;BME280;8870;50.950;11.762;2023-11-19T23:29:31;97846.75;;;8.46;100.00
17505;BME280;8870;50.950;11.762;2023-11-19T23:35:05;97845.94;;;8.45;100.00
17505;BME280;8870;50.950;11.762;2023-11-19T23:40:24;97841.25;;;8.47;100.00
17505;BME280;8870;50.950;11.762;2023-11-19T23:45:55;97832.34;;;8.47;100.00
17505;BME280;8870;50.950;11.762;2023-11-19T23:51:16;97836.03;;;8.46;100.00
17505;BME280;8870;50.950;11.762;2023-11-19T23:56:47;97823.59;;;8.45;100.00
